Flight Track Log - Related Links

Times and Time Zones

All times are in EDT time to prevent confusion due to time zone crossing. See the N6867L flight status page for this flight to view local times or setup timezone preferences in your user account.

Time Position Orientation Groundspeed Altitude Reporting Facility
EDT Latitude Longitude Course Direction KTS MPH feet Rate Location/Type
Thu 10:19:56 AM 35.2506 -120.6658 297° West 124 143 1,300  Level Los Angeles Center
Thu 10:20:42 AM 35.2611 -120.6911 297° West 109 125 2,300 1,167 Climbing Los Angeles Center
Thu 10:21:44 AM 35.2783 -120.7208 305° West 108 124 3,400 1,016 Climbing Los Angeles Center
Thu 10:22:46 AM 35.2575 -120.7414 219° Southwest 144 166 4,400 871 Climbing Los Angeles Center
Thu 10:23:48 AM 35.2456 -120.6983 109° East 147 169 5,200 871 Climbing Los Angeles Center
Thu 10:24:50 AM 35.2506 -120.6483 83° East 148 170 6,200 919 Climbing Los Angeles Center
Thu 10:25:52 AM 35.2575 -120.5992 80° East 147 169 7,100 878 Climbing Los Angeles Center
Thu 10:26:53 AM 35.2636 -120.5503 81° East 145 167 8,000 878 Climbing Los Angeles Center
Thu 10:27:55 AM 35.2714 -120.4994 79° East 150 173 8,900 919 Climbing Los Angeles Center
Thu 10:28:57 AM 35.2775 -120.4478 82° East 152 175 9,900 1,016 Climbing Los Angeles Center
Thu 10:29:59 AM 35.2842 -120.3897 82° East 146 168 11,000 581 Climbing Los Angeles Center
Thu 10:31:01 AM 35.2903 -120.3319 83° East 169 194 11,100 44 Climbing Los Angeles Center
Thu 10:32:15 AM 35.2992 -120.2614 81° East 175 201 11,100  Level Los Angeles Center
Thu 10:33:17 AM 35.3061 -120.2039 82° East 172 198 11,100  Level Los Angeles Center
Thu 10:34:19 AM 35.3133 -120.1447 81° East 174 200 11,100  Level Los Angeles Center
Thu 10:35:20 AM 35.3203 -120.0800 82° East 176 203 11,100  Level Los Angeles Center
Thu 10:36:22 AM 35.3278 -120.0225 81° East 172 198 11,100  Level Los Angeles Center
Thu 10:37:24 AM 35.3336 -119.9644 83° East 173 199 11,100  Level Los Angeles Center
Thu 10:38:26 AM 35.3400 -119.9061 82° East 173 199 11,100 -242 Level Los Angeles Center
Thu 10:39:28 AM 35.3478 -119.8350 82° East 175 201 10,600 -488 Descending Los Angeles Center
Thu 10:40:29 AM 35.3550 -119.7717 82° East 185 213 10,100 -537 Descending Los Angeles Center
Thu 10:41:31 AM 35.3608 -119.7069 84° East 190 219 9,500 -726 Descending Los Angeles Center
Thu 10:42:33 AM 35.3703 -119.6422 80° East 193 222 8,600 -968 Descending Los Angeles Center
Thu 10:43:35 AM 35.3772 -119.5714 83° East 204 235 7,500 -780 Descending Los Angeles Center
Thu 10:44:36 AM 35.3858 -119.5028 81° East 205 236 7,000 -439 Descending Los Angeles Center
Thu 10:45:38 AM 35.3886 -119.4325 87° East 186 214 6,600 -677 Descending Los Angeles Center
Thu 10:46:40 AM 35.3772 -119.3667 102° East 188 216 5,600 -919 Descending Los Angeles Center
Thu 10:47:42 AM 35.3672 -119.2986 100° East 197 227 4,700 -871 Descending Los Angeles Center
Thu 10:49:00 AM 35.3840 -119.2314 73° East  Level FlightAware Approximate
Thu 10:56:00 AM 35.4333 -119.0500 68° East  Level FlightAware Approximate
Thu 10:57:00 AM 35.4339 -119.0577 68° East  Level Estimated
Thu 10:58:00 AM 35.4333 -119.0500 68° East  Level FlightAware Approximate
Thu 10:59:00 AM 35.4339 -119.0577 68° East  Level Estimated

Login

Don't have an account? Register now (free) for customized features, flight alerts, and more!